sensor_id;sensor_type;location;lat;lon;timestamp;temperature;humidity
506;DHT22;551;48.524;9.056;2023-11-18T00:01:05;7.00;1.00
506;DHT22;551;48.524;9.056;2023-11-18T00:03:31;7.00;1.00
506;DHT22;551;48.524;9.056;2023-11-18T00:05:56;6.90;1.00
506;DHT22;551;48.524;9.056;2023-11-18T00:08:22;6.80;1.00
506;DHT22;551;48.524;9.056;2023-11-18T00:10:47;6.70;1.00
506;DHT22;551;48.524;9.056;2023-11-18T00:13:13;6.60;1.00
506;DHT22;551;48.524;9.056;2023-11-18T00:15:38;6.50;1.00
506;DHT22;551;48.524;9.056;2023-11-18T00:18:04;6.40;1.00
506;DHT22;551;48.524;9.056;2023-11-18T00:20:29;6.40;1.00
506;DHT22;551;48.524;9.056;2023-11-18T00:22:56;6.30;1.00
506;DHT22;551;48.524;9.056;2023-11-18T00:25:22;6.30;1.00
506;DHT22;551;48.524;9.056;2023-11-18T00:27:47;6.30;1.00
506;DHT22;551;48.524;9.056;2023-11-18T00:30:13;6.40;1.00
506;DHT22;551;48.524;9.056;2023-11-18T00:32:39;6.40;1.00
506;DHT22;551;48.524;9.056;2023-11-18T00:35:05;6.40;1.00
506;DHT22;551;48.524;9.056;2023-11-18T00:37:32;6.40;1.00
506;DHT22;551;48.524;9.056;2023-11-18T00:39:57;6.50;1.00
506;DHT22;551;48.524;9.056;2023-11-18T00:42:23;6.60;1.00
506;DHT22;551;48.524;9.056;2023-11-18T00:44:49;6.60;1.00
506;DHT22;551;48.524;9.056;2023-11-18T00:47:15;6.50;1.00
506;DHT22;551;48.524;9.056;2023-11-18T00:49:40;6.60;1.00
506;DHT22;551;48.524;9.056;2023-11-18T00:52:06;6.50;1.00
506;DHT22;551;48.524;9.056;2023-11-18T00:54:32;6.60;1.00
506;DHT22;551;48.524;9.056;2023-11-18T00:56:57;6.60;1.00
506;DHT22;551;48.524;9.056;2023-11-18T00:59:23;6.60;1.00
506;DHT22;551;48.524;9.056;2023-11-18T01:01:49;6.60;1.00
506;DHT22;551;48.524;9.056;2023-11-18T01:04:15;6.60;1.00
506;DHT22;551;48.524;9.056;2023-11-18T01:06:42;6.60;1.00
506;DHT22;551;48.524;9.056;2023-11-18T01:09:08;6.60;1.00
506;DHT22;551;48.524;9.056;2023-11-18T01:11:35;6.70;1.00
506;DHT22;551;48.524;9.056;2023-11-18T01:14:01;6.70;1.00
506;DHT22;551;48.524;9.056;2023-11-18T01:16:27;6.70;1.00
506;DHT22;551;48.524;9.056;2023-11-18T01:18:53;6.70;1.00
506;DHT22;551;48.524;9.056;2023-11-18T01:21:19;6.70;1.00
506;DHT22;551;48.524;9.056;2023-11-18T01:23:45;6.70;1.00
506;DHT22;551;48.524;9.056;2023-11-18T01:26:11;6.70;1.00
506;DHT22;551;48.524;9.056;2023-11-18T01:28:38;6.70;1.00
506;DHT22;551;48.524;9.056;2023-11-18T01:31:07;6.60;1.00
506;DHT22;551;48.524;9.056;2023-11-18T01:33:39;6.60;1.00
506;DHT22;551;48.524;9.056;2023-11-18T01:36:09;6.60;1.00
506;DHT22;551;48.524;9.056;2023-11-18T01:38:38;6.60;1.00
506;DHT22;551;48.524;9.056;2023-11-18T01:41:04;6.60;1.00
506;DHT22;551;48.524;9.056;2023-11-18T01:43:30;6.60;1.00
506;DHT22;551;48.524;9.056;2023-11-18T01:45:58;6.60;1.00
506;DHT22;551;48.524;9.056;2023-11-18T01:48:27;6.60;1.00
506;DHT22;551;48.524;9.056;2023-11-18T01:50:53;6.60;1.00
506;DHT22;551;48.524;9.056;2023-11-18T01:53:21;6.60;1.00
506;DHT22;551;48.524;9.056;2023-11-18T01:55:47;6.70;1.00
506;DHT22;551;48.524;9.056;2023-11-18T01:58:14;6.70;1.00
506;DHT22;551;48.524;9.056;2023-11-18T02:00:45;6.60;1.00
506;DHT22;551;48.524;9.056;2023-11-18T02:03:12;6.60;1.00
506;DHT22;551;48.524;9.056;2023-11-18T02:05:37;6.60;1.00
506;DHT22;551;48.524;9.056;2023-11-18T02:08:04;6.50;1.00
506;DHT22;551;48.524;9.056;2023-11-18T02:10:33;6.50;1.00
506;DHT22;551;48.524;9.056;2023-11-18T02:13:10;6.40;1.00
506;DHT22;551;48.524;9.056;2023-11-18T02:15:38;6.40;1.00
506;DHT22;551;48.524;9.056;2023-11-18T02:18:06;6.40;1.00
506;DHT22;551;48.524;9.056;2023-11-18T02:20:36;6.50;1.00
506;DHT22;551;48.524;9.056;2023-11-18T02:23:02;6.50;1.00
506;DHT22;551;48.524;9.056;2023-11-18T02:25:29;6.60;1.00
506;DHT22;551;48.524;9.056;2023-11-18T02:27:58;6.60;1.00
506;DHT22;551;48.524;9.056;2023-11-18T02:30:23;6.60;1.00
506;DHT22;551;48.524;9.056;2023-11-18T02:33:01;6.50;1.00
506;DHT22;551;48.524;9.056;2023-11-18T02:35:34;6.40;1.00
506;DHT22;551;48.524;9.056;2023-11-18T02:38:04;6.40;1.00
506;DHT22;551;48.524;9.056;2023-11-18T02:40:39;6.30;1.00
506;DHT22;551;48.524;9.056;2023-11-18T02:43:06;6.20;1.00
506;DHT22;551;48.524;9.056;2023-11-18T02:45:34;6.10;1.00
506;DHT22;551;48.524;9.056;2023-11-18T02:48:01;6.00;1.00
506;DHT22;551;48.524;9.056;2023-11-18T02:50:27;6.00;1.00
506;DHT22;551;48.524;9.056;2023-11-18T02:52:56;5.90;1.00
506;DHT22;551;48.524;9.056;2023-11-18T02:55:21;5.70;1.00
506;DHT22;551;48.524;9.056;2023-11-18T02:57:48;5.60;1.00
506;DHT22;551;48.524;9.056;2023-11-18T03:00:15;5.60;1.00
506;DHT22;551;48.524;9.056;2023-11-18T03:02:50;5.60;1.00
506;DHT22;551;48.524;9.056;2023-11-18T03:05:17;5.50;1.00
506;DHT22;551;48.524;9.056;2023-11-18T03:07:44;5.40;1.00
506;DHT22;551;48.524;9.056;2023-11-18T03:10:12;5.40;1.00
506;DHT22;551;48.524;9.056;2023-11-18T03:12:49;5.40;1.00
506;DHT22;551;48.524;9.056;2023-11-18T03:15:15;5.30;1.00
506;DHT22;551;48.524;9.056;2023-11-18T03:17:48;5.30;1.00
506;DHT22;551;48.524;9.056;2023-11-18T03:20:21;5.30;1.00
506;DHT22;551;48.524;9.056;2023-11-18T03:22:49;5.30;1.00
506;DHT22;551;48.524;9.056;2023-11-18T03:25:16;5.30;1.00
506;DHT22;551;48.524;9.056;2023-11-18T03:27:42;5.30;1.00
506;DHT22;551;48.524;9.056;2023-11-18T03:30:08;5.30;1.00
506;DHT22;551;48.524;9.056;2023-11-18T03:32:39;5.20;1.00
506;DHT22;551;48.524;9.056;2023-11-18T03:35:06;5.30;1.00
506;DHT22;551;48.524;9.056;2023-11-18T03:37:35;5.30;1.00
506;DHT22;551;48.524;9.056;2023-11-18T03:40:11;5.30;1.00
506;DHT22;551;48.524;9.056;2023-11-18T03:42:37;5.30;1.00
506;DHT22;551;48.524;9.056;2023-11-18T03:45:03;5.40;1.00
506;DHT22;551;48.524;9.056;2023-11-18T03:47:29;5.40;1.00
506;DHT22;551;48.524;9.056;2023-11-18T03:49:56;5.40;1.00
506;DHT22;551;48.524;9.056;2023-11-18T03:52:21;5.50;1.00
506;DHT22;551;48.524;9.056;2023-11-18T03:54:47;5.50;1.00
506;DHT22;551;48.524;9.056;2023-11-18T03:57:12;5.50;1.00
506;DHT22;551;48.524;9.056;2023-11-18T03:59:41;5.60;1.00
506;DHT22;551;48.524;9.056;2023-11-18T04:02:07;5.60;1.00
506;DHT22;551;48.524;9.056;2023-11-18T04:04:33;5.60;1.00
506;DHT22;551;48.524;9.056;2023-11-18T04:06:59;5.60;1.00
506;DHT22;551;48.524;9.056;2023-11-18T04:09:29;5.60;1.00
506;DHT22;551;48.524;9.056;2023-11-18T04:11:55;5.50;1.00
506;DHT22;551;48.524;9.056;2023-11-18T04:14:20;5.40;1.00
506;DHT22;551;48.524;9.056;2023-11-18T04:16:47;5.30;1.00
506;DHT22;551;48.524;9.056;2023-11-18T04:19:13;5.30;1.00
506;DHT22;551;48.524;9.056;2023-11-18T04:21:38;5.20;1.00
506;DHT22;551;48.524;9.056;2023-11-18T04:24:05;5.20;1.00
506;DHT22;551;48.524;9.056;2023-11-18T04:26:31;5.20;1.00
506;DHT22;551;48.524;9.056;2023-11-18T04:28:57;5.20;1.00
506;DHT22;551;48.524;9.056;2023-11-18T04:31:24;5.20;1.00
506;DHT22;551;48.524;9.056;2023-11-18T04:33:49;5.20;1.00
506;DHT22;551;48.524;9.056;2023-11-18T04:36:15;5.20;1.00
506;DHT22;551;48.524;9.056;2023-11-18T04:38:42;5.20;1.00
506;DHT22;551;48.524;9.056;2023-11-18T04:41:08;5.30;1.00
506;DHT22;551;48.524;9.056;2023-11-18T04:43:33;5.30;1.00
506;DHT22;551;48.524;9.056;2023-11-18T04:45:59;5.40;1.00
506;DHT22;551;48.524;9.056;2023-11-18T04:48:24;5.30;1.00
506;DHT22;551;48.524;9.056;2023-11-18T04:50:50;5.30;1.00
506;DHT22;551;48.524;9.056;2023-11-18T04:53:16;5.40;1.00
506;DHT22;551;48.524;9.056;2023-11-18T04:55:41;5.40;1.00
506;DHT22;551;48.524;9.056;2023-11-18T04:58:07;5.40;1.00
506;DHT22;551;48.524;9.056;2023-11-18T05:00:35;5.40;1.00
506;DHT22;551;48.524;9.056;2023-11-18T05:03:02;5.30;1.00
506;DHT22;551;48.524;9.056;2023-11-18T05:05:29;5.30;1.00
506;DHT22;551;48.524;9.056;2023-11-18T05:07:54;5.30;1.00
506;DHT22;551;48.524;9.056;2023-11-18T05:10:19;5.40;1.00
506;DHT22;551;48.524;9.056;2023-11-18T05:12:45;5.40;1.00
506;DHT22;551;48.524;9.056;2023-11-18T05:15:18;5.40;1.00
506;DHT22;551;48.524;9.056;2023-11-18T05:17:44;5.40;1.00
506;DHT22;551;48.524;9.056;2023-11-18T05:20:09;5.30;1.00
506;DHT22;551;48.524;9.056;2023-11-18T05:22:36;5.40;1.00
506;DHT22;551;48.524;9.056;2023-11-18T05:25:03;5.30;1.00
506;DHT22;551;48.524;9.056;2023-11-18T05:27:30;5.40;1.00
506;DHT22;551;48.524;9.056;2023-11-18T05:29:56;5.30;1.00
506;DHT22;551;48.524;9.056;2023-11-18T05:32:27;5.40;1.00
506;DHT22;551;48.524;9.056;2023-11-18T05:34:52;5.40;1.00
506;DHT22;551;48.524;9.056;2023-11-18T05:37:19;5.40;1.00
506;DHT22;551;48.524;9.056;2023-11-18T05:39:45;5.40;1.00
506;DHT22;551;48.524;9.056;2023-11-18T05:42:11;5.50;1.00
506;DHT22;551;48.524;9.056;2023-11-18T05:44:38;5.40;1.00
506;DHT22;551;48.524;9.056;2023-11-18T05:47:05;5.40;1.00
506;DHT22;551;48.524;9.056;2023-11-18T05:49:33;5.40;1.00
506;DHT22;551;48.524;9.056;2023-11-18T05:51:58;5.40;1.00
506;DHT22;551;48.524;9.056;2023-11-18T05:54:24;5.50;1.00
506;DHT22;551;48.524;9.056;2023-11-18T05:56:49;5.50;1.00
506;DHT22;551;48.524;9.056;2023-11-18T05:59:15;5.50;1.00
506;DHT22;551;48.524;9.056;2023-11-18T06:01:41;5.50;1.00
506;DHT22;551;48.524;9.056;2023-11-18T06:04:06;5.60;1.00
506;DHT22;551;48.524;9.056;2023-11-18T06:06:35;5.60;1.00
506;DHT22;551;48.524;9.056;2023-11-18T06:09:02;5.60;1.00
506;DHT22;551;48.524;9.056;2023-11-18T06:11:33;5.60;1.00
506;DHT22;551;48.524;9.056;2023-11-18T06:14:00;5.60;1.00
506;DHT22;551;48.524;9.056;2023-11-18T06:16:26;5.60;1.00
506;DHT22;551;48.524;9.056;2023-11-18T06:18:54;5.70;1.00
506;DHT22;551;48.524;9.056;2023-11-18T06:21:24;5.70;1.00
506;DHT22;551;48.524;9.056;2023-11-18T06:23:50;5.60;1.00
506;DHT22;551;48.524;9.056;2023-11-18T06:26:16;5.60;1.00
506;DHT22;551;48.524;9.056;2023-11-18T06:28:44;5.60;1.00
506;DHT22;551;48.524;9.056;2023-11-18T06:31:10;5.50;1.00
506;DHT22;551;48.524;9.056;2023-11-18T06:33:45;5.50;1.00
506;DHT22;551;48.524;9.056;2023-11-18T06:38:39;5.30;1.00
506;DHT22;551;48.524;9.056;2023-11-18T06:41:06;5.30;1.00
506;DHT22;551;48.524;9.056;2023-11-18T06:43:36;5.20;1.00
506;DHT22;551;48.524;9.056;2023-11-18T06:46:20;5.20;1.00
506;DHT22;551;48.524;9.056;2023-11-18T06:48:50;5.20;1.00
506;DHT22;551;48.524;9.056;2023-11-18T06:51:22;5.10;1.00
506;DHT22;551;48.524;9.056;2023-11-18T06:53:51;5.10;1.00
506;DHT22;551;48.524;9.056;2023-11-18T06:56:17;5.10;1.00
506;DHT22;551;48.524;9.056;2023-11-18T06:58:43;5.10;1.00
506;DHT22;551;48.524;9.056;2023-11-18T07:01:11;5.20;1.00
506;DHT22;551;48.524;9.056;2023-11-18T07:03:37;5.30;1.00
506;DHT22;551;48.524;9.056;2023-11-18T07:06:03;5.40;1.00
506;DHT22;551;48.524;9.056;2023-11-18T07:08:31;5.50;1.00
506;DHT22;551;48.524;9.056;2023-11-18T07:10:57;5.50;1.00
506;DHT22;551;48.524;9.056;2023-11-18T07:13:22;5.60;1.00
506;DHT22;551;48.524;9.056;2023-11-18T07:15:49;5.70;1.00
506;DHT22;551;48.524;9.056;2023-11-18T07:18:14;5.80;1.00
506;DHT22;551;48.524;9.056;2023-11-18T07:20:41;5.80;1.00
506;DHT22;551;48.524;9.056;2023-11-18T07:23:07;5.90;1.00
506;DHT22;551;48.524;9.056;2023-11-18T07:25:34;6.00;1.00
506;DHT22;551;48.524;9.056;2023-11-18T07:27:59;6.00;1.00
506;DHT22;551;48.524;9.056;2023-11-18T07:30:25;6.10;1.00
506;DHT22;551;48.524;9.056;2023-11-18T07:32:51;6.10;1.00
506;DHT22;551;48.524;9.056;2023-11-18T07:35:16;6.20;1.00
506;DHT22;551;48.524;9.056;2023-11-18T07:37:43;6.30;1.00
506;DHT22;551;48.524;9.056;2023-11-18T07:40:09;6.40;1.00
506;DHT22;551;48.524;9.056;2023-11-18T07:42:37;6.50;1.00
506;DHT22;551;48.524;9.056;2023-11-18T07:45:06;6.50;1.00
506;DHT22;551;48.524;9.056;2023-11-18T07:47:43;6.60;1.00
506;DHT22;551;48.524;9.056;2023-11-18T07:50:09;6.70;1.00
506;DHT22;551;48.524;9.056;2023-11-18T07:52:38;6.80;1.00
506;DHT22;551;48.524;9.056;2023-11-18T07:55:04;6.80;1.00
506;DHT22;551;48.524;9.056;2023-11-18T07:57:29;7.00;1.00
506;DHT22;551;48.524;9.056;2023-11-18T07:59:55;7.00;1.00
506;DHT22;551;48.524;9.056;2023-11-18T08:02:20;7.10;1.00
506;DHT22;551;48.524;9.056;2023-11-18T08:04:46;7.10;1.00
506;DHT22;551;48.524;9.056;2023-11-18T08:07:11;7.30;1.00
506;DHT22;551;48.524;9.056;2023-11-18T08:09:37;7.30;1.00
506;DHT22;551;48.524;9.056;2023-11-18T08:12:05;7.40;1.00
506;DHT22;551;48.524;9.056;2023-11-18T08:14:34;7.50;1.00
506;DHT22;551;48.524;9.056;2023-11-18T08:17:00;7.60;1.00
506;DHT22;551;48.524;9.056;2023-11-18T08:19:25;7.80;1.00
506;DHT22;551;48.524;9.056;2023-11-18T08:21:51;7.80;1.00
506;DHT22;551;48.524;9.056;2023-11-18T08:24:17;7.80;1.00
506;DHT22;551;48.524;9.056;2023-11-18T08:26:43;7.80;1.00
506;DHT22;551;48.524;9.056;2023-11-18T08:29:08;7.80;1.00
506;DHT22;551;48.524;9.056;2023-11-18T08:31:34;7.90;1.00
506;DHT22;551;48.524;9.056;2023-11-18T08:34:00;7.90;1.00
506;DHT22;551;48.524;9.056;2023-11-18T08:36:26;7.90;1.00
506;DHT22;551;48.524;9.056;2023-11-18T08:38:52;8.00;1.00
506;DHT22;551;48.524;9.056;2023-11-18T08:41:18;8.00;1.00
506;DHT22;551;48.524;9.056;2023-11-18T08:43:45;8.20;1.00
506;DHT22;551;48.524;9.056;2023-11-18T08:46:14;8.20;1.00
506;DHT22;551;48.524;9.056;2023-11-18T08:48:40;8.20;1.00
506;DHT22;551;48.524;9.056;2023-11-18T08:51:07;8.20;1.00
506;DHT22;551;48.524;9.056;2023-11-18T08:53:34;8.20;1.00
506;DHT22;551;48.524;9.056;2023-11-18T08:56:08;8.30;1.00
506;DHT22;551;48.524;9.056;2023-11-18T08:58:40;8.40;1.00
506;DHT22;551;48.524;9.056;2023-11-18T09:01:06;8.40;1.00
506;DHT22;551;48.524;9.056;2023-11-18T09:03:38;8.70;1.00
506;DHT22;551;48.524;9.056;2023-11-18T09:06:08;8.90;1.00
506;DHT22;551;48.524;9.056;2023-11-18T09:08:45;9.10;1.00
506;DHT22;551;48.524;9.056;2023-11-18T09:11:12;9.20;1.00
506;DHT22;551;48.524;9.056;2023-11-18T09:13:41;9.40;1.00
506;DHT22;551;48.524;9.056;2023-11-18T09:16:08;9.60;1.00
506;DHT22;551;48.524;9.056;2023-11-18T09:18:35;9.80;1.00
506;DHT22;551;48.524;9.056;2023-11-18T09:21:01;9.90;1.00
506;DHT22;551;48.524;9.056;2023-11-18T09:23:29;9.90;1.00
506;DHT22;551;48.524;9.056;2023-11-18T09:25:55;10.00;1.00
506;DHT22;551;48.524;9.056;2023-11-18T09:28:24;10.00;1.00
506;DHT22;551;48.524;9.056;2023-11-18T09:30:50;10.00;1.00
506;DHT22;551;48.524;9.056;2023-11-18T09:33:22;10.10;1.00
506;DHT22;551;48.524;9.056;2023-11-18T09:35:57;10.20;1.00
506;DHT22;551;48.524;9.056;2023-11-18T09:38:30;10.40;1.00
506;DHT22;551;48.524;9.056;2023-11-18T09:40:59;10.70;1.00
506;DHT22;551;48.524;9.056;2023-11-18T09:43:32;11.00;1.00
506;DHT22;551;48.524;9.056;2023-11-18T09:46:06;11.30;1.00
506;DHT22;551;48.524;9.056;2023-11-18T09:51:22;11.70;1.00
506;DHT22;551;48.524;9.056;2023-11-18T09:53:55;11.90;1.00
506;DHT22;551;48.524;9.056;2023-11-18T09:59:11;12.20;1.00
506;DHT22;551;48.524;9.056;2023-11-18T10:01:42;12.50;1.00
506;DHT22;551;48.524;9.056;2023-11-18T10:04:09;12.60;1.00
506;DHT22;551;48.524;9.056;2023-11-18T10:06:36;12.70;1.00
506;DHT22;551;48.524;9.056;2023-11-18T10:09:06;12.60;1.00
506;DHT22;551;48.524;9.056;2023-11-18T10:11:43;12.70;1.00
506;DHT22;551;48.524;9.056;2023-11-18T10:14:12;12.80;1.00
506;DHT22;551;48.524;9.056;2023-11-18T10:16:41;13.00;1.00
506;DHT22;551;48.524;9.056;2023-11-18T10:19:07;13.00;1.00
506;DHT22;551;48.524;9.056;2023-11-18T10:21:37;13.10;1.00
506;DHT22;551;48.524;9.056;2023-11-18T10:24:08;13.20;1.00
506;DHT22;551;48.524;9.056;2023-11-18T10:26:42;13.00;1.00
506;DHT22;551;48.524;9.056;2023-11-18T10:29:09;12.80;1.00
506;DHT22;551;48.524;9.056;2023-11-18T10:31:36;12.80;1.00
506;DHT22;551;48.524;9.056;2023-11-18T10:34:03;12.80;1.00
506;DHT22;551;48.524;9.056;2023-11-18T10:36:29;12.60;1.00
506;DHT22;551;48.524;9.056;2023-11-18T10:38:58;12.80;1.00
506;DHT22;551;48.524;9.056;2023-11-18T10:41:26;13.00;1.00
506;DHT22;551;48.524;9.056;2023-11-18T10:44:07;12.90;1.00
506;DHT22;551;48.524;9.056;2023-11-18T10:46:35;13.00;1.00
506;DHT22;551;48.524;9.056;2023-11-18T10:49:01;13.00;1.00
506;DHT22;551;48.524;9.056;2023-11-18T10:51:27;12.90;1.00
506;DHT22;551;48.524;9.056;2023-11-18T10:53:56;12.90;1.00
506;DHT22;551;48.524;9.056;2023-11-18T10:56:27;12.60;1.00
506;DHT22;551;48.524;9.056;2023-11-18T10:58:57;12.40;1.00
506;DHT22;551;48.524;9.056;2023-11-18T11:01:33;12.30;1.00
506;DHT22;551;48.524;9.056;2023-11-18T11:03:59;12.10;1.00
506;DHT22;551;48.524;9.056;2023-11-18T11:06:25;12.10;1.00
506;DHT22;551;48.524;9.056;2023-11-18T11:08:52;12.00;1.00
506;DHT22;551;48.524;9.056;2023-11-18T11:11:21;11.90;1.00
506;DHT22;551;48.524;9.056;2023-11-18T11:13:57;11.80;1.00
506;DHT22;551;48.524;9.056;2023-11-18T11:16:28;11.50;1.00
506;DHT22;551;48.524;9.056;2023-11-18T11:19:01;11.50;1.00
506;DHT22;551;48.524;9.056;2023-11-18T11:21:39;11.50;1.00
506;DHT22;551;48.524;9.056;2023-11-18T11:24:20;11.50;1.00
506;DHT22;551;48.524;9.056;2023-11-18T11:28:07;11.60;1.00
506;DHT22;551;48.524;9.056;2023-11-18T11:30:28;11.50;1.00
506;DHT22;551;48.524;9.056;2023-11-18T11:33:29;11.30;1.00
506;DHT22;551;48.524;9.056;2023-11-18T11:36:02;11.20;1.00
506;DHT22;551;48.524;9.056;2023-11-18T11:38:29;11.20;1.00
506;DHT22;551;48.524;9.056;2023-11-18T11:40:58;11.20;1.00
506;DHT22;551;48.524;9.056;2023-11-18T11:43:27;11.30;1.00
506;DHT22;551;48.524;9.056;2023-11-18T11:45:54;11.40;1.00
506;DHT22;551;48.524;9.056;2023-11-18T11:48:24;11.50;1.00
506;DHT22;551;48.524;9.056;2023-11-18T11:53:55;11.70;1.00
506;DHT22;551;48.524;9.056;2023-11-18T11:56:44;11.80;1.00
506;DHT22;551;48.524;9.056;2023-11-18T11:59:15;11.80;1.00
506;DHT22;551;48.524;9.056;2023-11-18T12:01:41;11.70;1.00
506;DHT22;551;48.524;9.056;2023-11-18T12:04:16;11.70;1.00
506;DHT22;551;48.524;9.056;2023-11-18T12:06:53;11.60;1.00
506;DHT22;551;48.524;9.056;2023-11-18T12:09:21;11.60;1.00
506;DHT22;551;48.524;9.056;2023-11-18T12:11:47;11.60;1.00
506;DHT22;551;48.524;9.056;2023-11-18T12:14:17;11.50;1.00
506;DHT22;551;48.524;9.056;2023-11-18T12:19:33;11.40;1.00
506;DHT22;551;48.524;9.056;2023-11-18T12:22:21;11.40;1.00
506;DHT22;551;48.524;9.056;2023-11-18T12:33:05;11.20;1.00
506;DHT22;551;48.524;9.056;2023-11-18T12:41:37;10.90;1.00
506;DHT22;551;48.524;9.056;2023-11-18T12:46:53;11.00;1.00
506;DHT22;551;48.524;9.056;2023-11-18T12:49:22;10.90;1.00
506;DHT22;551;48.524;9.056;2023-11-18T12:51:52;10.90;1.00
506;DHT22;551;48.524;9.056;2023-11-18T12:54:19;10.90;1.00
506;DHT22;551;48.524;9.056;2023-11-18T12:56:45;10.90;1.00
506;DHT22;551;48.524;9.056;2023-11-18T12:59:16;10.80;1.00
506;DHT22;551;48.524;9.056;2023-11-18T13:01:43;10.80;1.00
506;DHT22;551;48.524;9.056;2023-11-18T13:04:17;10.80;1.00
506;DHT22;551;48.524;9.056;2023-11-18T13:06:43;10.80;1.00
506;DHT22;551;48.524;9.056;2023-11-18T13:09:08;10.80;1.00
506;DHT22;551;48.524;9.056;2023-11-18T13:11:36;10.80;1.00
506;DHT22;551;48.524;9.056;2023-11-18T13:14:03;10.80;1.00
506;DHT22;551;48.524;9.056;2023-11-18T13:16:29;10.90;1.00
506;DHT22;551;48.524;9.056;2023-11-18T13:18:55;10.90;1.00
506;DHT22;551;48.524;9.056;2023-11-18T13:21:21;10.70;1.00
506;DHT22;551;48.524;9.056;2023-11-18T13:23:49;10.60;1.00
506;DHT22;551;48.524;9.056;2023-11-18T13:26:18;10.50;1.00
506;DHT22;551;48.524;9.056;2023-11-18T13:28:48;10.50;1.00
506;DHT22;551;48.524;9.056;2023-11-18T13:31:14;10.50;1.00
506;DHT22;551;48.524;9.056;2023-11-18T13:33:47;10.60;1.00
506;DHT22;551;48.524;9.056;2023-11-18T13:36:13;10.70;1.00
506;DHT22;551;48.524;9.056;2023-11-18T13:38:40;10.70;1.00
506;DHT22;551;48.524;9.056;2023-11-18T13:41:07;10.70;1.00
506;DHT22;551;48.524;9.056;2023-11-18T13:43:41;10.70;1.00
506;DHT22;551;48.524;9.056;2023-11-18T13:46:13;10.70;1.00
506;DHT22;551;48.524;9.056;2023-11-18T13:48:39;10.60;1.00
506;DHT22;551;48.524;9.056;2023-11-18T13:51:10;10.50;1.00
506;DHT22;551;48.524;9.056;2023-11-18T13:53:40;10.50;1.00
506;DHT22;551;48.524;9.056;2023-11-18T13:56:07;10.60;1.00
506;DHT22;551;48.524;9.056;2023-11-18T13:58:35;10.70;1.00
506;DHT22;551;48.524;9.056;2023-11-18T14:01:05;10.70;1.00
506;DHT22;551;48.524;9.056;2023-11-18T14:03:31;10.80;1.00
506;DHT22;551;48.524;9.056;2023-11-18T14:05:58;10.70;1.00
506;DHT22;551;48.524;9.056;2023-11-18T14:08:28;10.80;1.00
506;DHT22;551;48.524;9.056;2023-11-18T14:10:53;10.80;1.00
506;DHT22;551;48.524;9.056;2023-11-18T14:13:19;10.90;1.00
506;DHT22;551;48.524;9.056;2023-11-18T14:15:44;10.90;1.00
506;DHT22;551;48.524;9.056;2023-11-18T14:18:12;10.80;1.00
506;DHT22;551;48.524;9.056;2023-11-18T14:20:39;10.80;1.00
506;DHT22;551;48.524;9.056;2023-11-18T14:23:05;10.70;1.00
506;DHT22;551;48.524;9.056;2023-11-18T14:25:34;10.60;1.00
506;DHT22;551;48.524;9.056;2023-11-18T14:28:00;10.50;1.00
506;DHT22;551;48.524;9.056;2023-11-18T14:30:25;10.50;1.00
506;DHT22;551;48.524;9.056;2023-11-18T14:32:51;10.50;1.00
506;DHT22;551;48.524;9.056;2023-11-18T14:35:17;10.40;1.00
506;DHT22;551;48.524;9.056;2023-11-18T14:37:46;10.30;1.00
506;DHT22;551;48.524;9.056;2023-11-18T14:40:12;10.20;1.00
506;DHT22;551;48.524;9.056;2023-11-18T14:42:45;10.20;1.00
506;DHT22;551;48.524;9.056;2023-11-18T14:45:12;10.20;1.00
506;DHT22;551;48.524;9.056;2023-11-18T14:47:41;10.20;1.00
506;DHT22;551;48.524;9.056;2023-11-18T14:50:10;10.20;1.00
506;DHT22;551;48.524;9.056;2023-11-18T14:52:48;10.20;1.00
506;DHT22;551;48.524;9.056;2023-11-18T14:55:17;10.20;1.00
506;DHT22;551;48.524;9.056;2023-11-18T14:57:46;10.20;1.00
506;DHT22;551;48.524;9.056;2023-11-18T15:00:13;10.30;1.00
506;DHT22;551;48.524;9.056;2023-11-18T15:02:52;10.20;1.00
506;DHT22;551;48.524;9.056;2023-11-18T15:05:18;10.20;1.00
506;DHT22;551;48.524;9.056;2023-11-18T15:07:49;10.30;1.00
506;DHT22;551;48.524;9.056;2023-11-18T15:10:16;10.30;1.00
506;DHT22;551;48.524;9.056;2023-11-18T15:12:48;10.20;1.00
506;DHT22;551;48.524;9.056;2023-11-18T15:15:14;10.30;1.00
506;DHT22;551;48.524;9.056;2023-11-18T15:17:44;10.30;1.00
506;DHT22;551;48.524;9.056;2023-11-18T15:20:11;10.20;1.00
506;DHT22;551;48.524;9.056;2023-11-18T15:22:38;10.10;1.00
506;DHT22;551;48.524;9.056;2023-11-18T15:25:04;10.00;1.00
506;DHT22;551;48.524;9.056;2023-11-18T15:27:29;9.90;1.00
506;DHT22;551;48.524;9.056;2023-11-18T15:29:58;9.90;1.00
506;DHT22;551;48.524;9.056;2023-11-18T15:32:23;9.90;1.00
506;DHT22;551;48.524;9.056;2023-11-18T15:34:52;10.00;1.00
506;DHT22;551;48.524;9.056;2023-11-18T15:37:18;10.00;1.00
506;DHT22;551;48.524;9.056;2023-11-18T15:39:43;9.90;1.00
506;DHT22;551;48.524;9.056;2023-11-18T15:42:09;9.90;1.00
506;DHT22;551;48.524;9.056;2023-11-18T15:44:36;9.80;1.00
506;DHT22;551;48.524;9.056;2023-11-18T15:47:04;9.80;1.00
506;DHT22;551;48.524;9.056;2023-11-18T15:49:30;9.80;1.00
506;DHT22;551;48.524;9.056;2023-11-18T15:51:55;9.80;1.00
506;DHT22;551;48.524;9.056;2023-11-18T15:54:21;9.90;1.00
506;DHT22;551;48.524;9.056;2023-11-18T15:56:46;9.80;1.00
506;DHT22;551;48.524;9.056;2023-11-18T15:59:12;9.80;1.00
506;DHT22;551;48.524;9.056;2023-11-18T16:01:37;9.80;1.00
506;DHT22;551;48.524;9.056;2023-11-18T16:04:03;9.80;1.00
506;DHT22;551;48.524;9.056;2023-11-18T16:06:29;9.90;1.00
506;DHT22;551;48.524;9.056;2023-11-18T16:08:55;9.90;1.00
506;DHT22;551;48.524;9.056;2023-11-18T16:11:20;9.90;1.00
506;DHT22;551;48.524;9.056;2023-11-18T16:13:46;9.90;1.00
506;DHT22;551;48.524;9.056;2023-11-18T16:16:11;9.90;1.00
506;DHT22;551;48.524;9.056;2023-11-18T16:18:38;9.90;1.00
506;DHT22;551;48.524;9.056;2023-11-18T16:21:04;9.90;1.00
506;DHT22;551;48.524;9.056;2023-11-18T16:23:30;9.90;1.00
506;DHT22;551;48.524;9.056;2023-11-18T16:26:03;9.90;1.00
506;DHT22;551;48.524;9.056;2023-11-18T16:28:29;9.80;1.00
506;DHT22;551;48.524;9.056;2023-11-18T16:30:55;9.70;1.00
506;DHT22;551;48.524;9.056;2023-11-18T16:33:21;9.70;1.00
506;DHT22;551;48.524;9.056;2023-11-18T16:35:47;9.70;1.00
506;DHT22;551;48.524;9.056;2023-11-18T16:38:13;9.80;1.00
506;DHT22;551;48.524;9.056;2023-11-18T16:40:39;9.80;1.00
506;DHT22;551;48.524;9.056;2023-11-18T16:43:04;9.80;1.00
506;DHT22;551;48.524;9.056;2023-11-18T16:45:30;9.80;1.00
506;DHT22;551;48.524;9.056;2023-11-18T16:47:56;9.80;1.00
506;DHT22;551;48.524;9.056;2023-11-18T16:50:23;9.70;1.00
506;DHT22;551;48.524;9.056;2023-11-18T16:52:49;9.80;1.00
506;DHT22;551;48.524;9.056;2023-11-18T16:55:16;9.70;1.00
506;DHT22;551;48.524;9.056;2023-11-18T16:57:41;9.70;1.00
506;DHT22;551;48.524;9.056;2023-11-18T17:00:09;9.70;1.00
506;DHT22;551;48.524;9.056;2023-11-18T17:02:48;9.70;1.00
506;DHT22;551;48.524;9.056;2023-11-18T17:05:18;9.70;1.00
506;DHT22;551;48.524;9.056;2023-11-18T17:07:44;9.80;1.00
506;DHT22;551;48.524;9.056;2023-11-18T17:10:11;9.70;1.00
506;DHT22;551;48.524;9.056;2023-11-18T17:12:43;9.70;1.00
506;DHT22;551;48.524;9.056;2023-11-18T17:15:16;9.70;1.00
506;DHT22;551;48.524;9.056;2023-11-18T17:17:44;9.70;1.00
506;DHT22;551;48.524;9.056;2023-11-18T17:20:12;9.70;1.00
506;DHT22;551;48.524;9.056;2023-11-18T17:22:39;9.60;1.00
506;DHT22;551;48.524;9.056;2023-11-18T17:25:08;9.60;1.00
506;DHT22;551;48.524;9.056;2023-11-18T17:27:38;9.60;1.00
506;DHT22;551;48.524;9.056;2023-11-18T17:30:05;9.60;1.00
506;DHT22;551;48.524;9.056;2023-11-18T17:32:31;9.60;1.00
506;DHT22;551;48.524;9.056;2023-11-18T17:34:57;9.60;1.00
506;DHT22;551;48.524;9.056;2023-11-18T17:37:22;9.50;1.00
506;DHT22;551;48.524;9.056;2023-11-18T17:39:48;9.60;1.00